sensor_id;sensor_type;location;lat;lon;timestamp;pressure;altitude;pressure_sealevel;temperature
37452;BMP280;23314;51.114;6.900;2023-06-10T06:55:48;101199.25;;;23.68
37452;BMP280;23314;51.114;6.900;2023-06-10T06:58:14;101205.03;;;23.87
37452;BMP280;23314;51.114;6.900;2023-06-10T07:00:39;101196.66;;;24.13
37452;BMP280;23314;51.114;6.900;2023-06-10T07:03:04;101196.97;;;24.38
37452;BMP280;23314;51.114;6.900;2023-06-10T07:05:30;101200.47;;;24.61
37452;BMP280;23314;51.114;6.900;2023-06-10T07:07:56;101201.19;;;24.79
37452;BMP280;23314;51.114;6.900;2023-06-10T07:10:25;101198.94;;;25.00
37452;BMP280;23314;51.114;6.900;2023-06-10T07:12:51;101198.16;;;25.16
37452;BMP280;23314;51.114;6.900;2023-06-10T07:15:17;101198.34;;;25.35
37452;BMP280;23314;51.114;6.900;2023-06-10T07:17:42;101206.25;;;25.50
37452;BMP280;23314;51.114;6.900;2023-06-10T07:20:08;101199.72;;;25.65
37452;BMP280;23314;51.114;6.900;2023-06-10T07:22:34;101204.09;;;25.85
37452;BMP280;23314;51.114;6.900;2023-06-10T07:24:59;101209.72;;;25.98
37452;BMP280;23314;51.114;6.900;2023-06-10T07:27:24;101202.72;;;26.08
37452;BMP280;23314;51.114;6.900;2023-06-10T07:29:51;101201.91;;;26.19
37452;BMP280;23314;51.114;6.900;2023-06-10T07:32:16;101199.28;;;26.32
37452;BMP280;23314;51.114;6.900;2023-06-10T07:34:41;101192.31;;;26.37
37452;BMP280;23314;51.114;6.900;2023-06-10T07:37:07;101195.97;;;26.45
37452;BMP280;23314;51.114;6.900;2023-06-10T07:39:32;101195.66;;;26.55
37452;BMP280;23314;51.114;6.900;2023-06-10T07:41:57;101190.59;;;26.64
37452;BMP280;23314;51.114;6.900;2023-06-10T07:44:23;101194.25;;;26.73
37452;BMP280;23314;51.114;6.900;2023-06-10T07:46:49;101194.19;;;26.78
37452;BMP280;23314;51.114;6.900;2023-06-10T07:49:14;101190.19;;;26.79
37452;BMP280;23314;51.114;6.900;2023-06-10T07:51:40;101186.38;;;26.88
37452;BMP280;23314;51.114;6.900;2023-06-10T07:54:05;101194.75;;;26.96
37452;BMP280;23314;51.114;6.900;2023-06-10T07:56:31;101190.19;;;27.04
37452;BMP280;23314;51.114;6.900;2023-06-10T07:58:57;101198.31;;;27.10
37452;BMP280;23314;51.114;6.900;2023-06-10T08:01:23;101186.66;;;27.09
37452;BMP280;23314;51.114;6.900;2023-06-10T08:03:48;101187.84;;;27.14
37452;BMP280;23314;51.114;6.900;2023-06-10T08:06:14;101191.47;;;27.22
37452;BMP280;23314;51.114;6.900;2023-06-10T08:08:39;101184.91;;;27.31
37452;BMP280;23314;51.114;6.900;2023-06-10T08:11:10;101183.88;;;27.34
37452;BMP280;23314;51.114;6.900;2023-06-10T08:13:36;101182.00;;;27.42
37452;BMP280;23314;51.114;6.900;2023-06-10T08:16:01;101188.38;;;27.50
37452;BMP280;23314;51.114;6.900;2023-06-10T08:18:26;101189.75;;;27.57
37452;BMP280;23314;51.114;6.900;2023-06-10T08:20:52;101191.63;;;27.68
37452;BMP280;23314;51.114;6.900;2023-06-10T08:23:17;101198.72;;;27.76
37452;BMP280;23314;51.114;6.900;2023-06-10T08:25:42;101191.91;;;27.83
37452;BMP280;23314;51.114;6.900;2023-06-10T08:28:08;101201.75;;;27.92
37452;BMP280;23314;51.114;6.900;2023-06-10T08:30:43;101192.03;;;27.91
37452;BMP280;23314;51.114;6.900;2023-06-10T08:33:12;101198.16;;;27.97
37452;BMP280;23314;51.114;6.900;2023-06-10T08:35:37;101185.63;;;28.02
37452;BMP280;23314;51.114;6.900;2023-06-10T08:38:02;101188.50;;;28.09
37452;BMP280;23314;51.114;6.900;2023-06-10T08:40:28;101184.94;;;28.14
37452;BMP280;23314;51.114;6.900;2023-06-10T08:43:00;101182.97;;;28.28
37452;BMP280;23314;51.114;6.900;2023-06-10T08:45:30;101192.47;;;28.41
37452;BMP280;23314;51.114;6.900;2023-06-10T08:48:02;101188.16;;;28.45
37452;BMP280;23314;51.114;6.900;2023-06-10T08:50:30;101191.03;;;28.53
37452;BMP280;23314;51.114;6.900;2023-06-10T08:52:59;101183.94;;;28.58
37452;BMP280;23314;51.114;6.900;2023-06-10T08:55:31;101189.53;;;28.65
37452;BMP280;23314;51.114;6.900;2023-06-10T08:58:01;101184.97;;;28.68
37452;BMP280;23314;51.114;6.900;2023-06-10T09:00:28;101187.88;;;28.76
37452;BMP280;23314;51.114;6.900;2023-06-10T09:02:53;101178.56;;;28.79
37452;BMP280;23314;51.114;6.900;2023-06-10T09:05:19;101181.06;;;28.90
37452;BMP280;23314;51.114;6.900;2023-06-10T09:07:45;101174.19;;;28.97
37452;BMP280;23314;51.114;6.900;2023-06-10T09:10:11;101177.91;;;28.99
37452;BMP280;23314;51.114;6.900;2023-06-10T09:12:36;101176.94;;;29.10
37452;BMP280;23314;51.114;6.900;2023-06-10T09:15:03;101179.91;;;29.12
37452;BMP280;23314;51.114;6.900;2023-06-10T09:17:29;101179.00;;;29.17
37452;BMP280;23314;51.114;6.900;2023-06-10T09:19:55;101173.50;;;29.31
37452;BMP280;23314;51.114;6.900;2023-06-10T09:22:22;101179.47;;;29.42
37452;BMP280;23314;51.114;6.900;2023-06-10T09:24:48;101178.91;;;29.57
37452;BMP280;23314;51.114;6.900;2023-06-10T09:27:14;101171.25;;;29.63
37452;BMP280;23314;51.114;6.900;2023-06-10T09:29:51;101172.28;;;29.74
37452;BMP280;23314;51.114;6.900;2023-06-10T09:32:20;101171.72;;;29.75
37452;BMP280;23314;51.114;6.900;2023-06-10T09:34:46;101154.91;;;29.79
37452;BMP280;23314;51.114;6.900;2023-06-10T09:37:11;101167.09;;;29.91
37452;BMP280;23314;51.114;6.900;2023-06-10T09:39:39;101160.56;;;30.02
37452;BMP280;23314;51.114;6.900;2023-06-10T09:42:17;101164.81;;;30.03
37452;BMP280;23314;51.114;6.900;2023-06-10T09:44:49;101166.84;;;30.10
37452;BMP280;23314;51.114;6.900;2023-06-10T09:47:20;101167.09;;;30.12
37452;BMP280;23314;51.114;6.900;2023-06-10T09:49:45;101160.53;;;30.23
37452;BMP280;23314;51.114;6.900;2023-06-10T09:52:11;101158.94;;;30.35
37452;BMP280;23314;51.114;6.900;2023-06-10T09:54:36;101156.38;;;30.37
37452;BMP280;23314;51.114;6.900;2023-06-10T09:57:07;101157.34;;;30.40
37452;BMP280;23314;51.114;6.900;2023-06-10T09:59:32;101159.91;;;30.38
37452;BMP280;23314;51.114;6.900;2023-06-10T10:01:59;101150.13;;;30.29
37452;BMP280;23314;51.114;6.900;2023-06-10T10:04:26;101158.06;;;30.41
37452;BMP280;23314;51.114;6.900;2023-06-10T10:06:52;101149.91;;;30.56
37452;BMP280;23314;51.114;6.900;2023-06-10T10:09:17;101149.75;;;30.62
37452;BMP280;23314;51.114;6.900;2023-06-10T10:11:43;101156.34;;;30.66
37452;BMP280;23314;51.114;6.900;2023-06-10T10:14:09;101151.97;;;30.71
37452;BMP280;23314;51.114;6.900;2023-06-10T10:16:37;101152.53;;;30.77
37452;BMP280;23314;51.114;6.900;2023-06-10T10:19:19;101147.47;;;30.97
37452;BMP280;23314;51.114;6.900;2023-06-10T10:22:03;101146.06;;;31.26
37452;BMP280;23314;51.114;6.900;2023-06-10T10:24:36;101154.00;;;31.45
37452;BMP280;23314;51.114;6.900;2023-06-10T10:27:10;101146.63;;;31.40
37452;BMP280;23314;51.114;6.900;2023-06-10T10:29:38;101142.94;;;31.30
37452;BMP280;23314;51.114;6.900;2023-06-10T10:32:06;101150.09;;;31.25
37452;BMP280;23314;51.114;6.900;2023-06-10T10:35:12;101151.91;;;31.15
37452;BMP280;23314;51.114;6.900;2023-06-10T10:37:36;101144.56;;;31.10
37452;BMP280;23314;51.114;6.900;2023-06-10T10:40:02;101132.44;;;31.13
37452;BMP280;23314;51.114;6.900;2023-06-10T10:42:28;101139.63;;;31.24
37452;BMP280;23314;51.114;6.900;2023-06-10T10:44:54;101141.84;;;31.33
37452;BMP280;23314;51.114;6.900;2023-06-10T10:47:21;101140.00;;;31.36
37452;BMP280;23314;51.114;6.900;2023-06-10T10:49:48;101140.97;;;31.54
37452;BMP280;23314;51.114;6.900;2023-06-10T10:52:16;101137.06;;;31.80
37452;BMP280;23314;51.114;6.900;2023-06-10T10:54:44;101138.31;;;31.94
37452;BMP280;23314;51.114;6.900;2023-06-10T10:57:32;101134.44;;;31.97
37452;BMP280;23314;51.114;6.900;2023-06-10T10:59:58;101130.78;;;31.95
37452;BMP280;23314;51.114;6.900;2023-06-10T11:02:44;101134.78;;;32.09
37452;BMP280;23314;51.114;6.900;2023-06-10T11:05:14;101125.00;;;32.16
37452;BMP280;23314;51.114;6.900;2023-06-10T11:07:39;101122.63;;;32.20
37452;BMP280;23314;51.114;6.900;2023-06-10T11:10:12;101125.63;;;32.06
37452;BMP280;23314;51.114;6.900;2023-06-10T11:12:53;101117.00;;;31.95
37452;BMP280;23314;51.114;6.900;2023-06-10T11:18:14;101118.66;;;31.75
37452;BMP280;23314;51.114;6.900;2023-06-10T11:26:21;101112.00;;;31.93
37452;BMP280;23314;51.114;6.900;2023-06-10T11:31:24;101120.88;;;31.84
37452;BMP280;23314;51.114;6.900;2023-06-10T11:33:53;101122.84;;;31.91
37452;BMP280;23314;51.114;6.900;2023-06-10T11:36:18;101114.22;;;31.95
37452;BMP280;23314;51.114;6.900;2023-06-10T11:38:44;101115.13;;;31.97
37452;BMP280;23314;51.114;6.900;2023-06-10T11:41:11;101108.13;;;31.96
37452;BMP280;23314;51.114;6.900;2023-06-10T11:43:38;101100.94;;;32.09
37452;BMP280;23314;51.114;6.900;2023-06-10T11:46:06;101115.75;;;32.36
37452;BMP280;23314;51.114;6.900;2023-06-10T11:48:33;101112.97;;;32.77
37452;BMP280;23314;51.114;6.900;2023-06-10T11:50:59;101106.97;;;33.13
37452;BMP280;23314;51.114;6.900;2023-06-10T11:53:24;101107.78;;;33.31
37452;BMP280;23314;51.114;6.900;2023-06-10T11:55:50;101098.28;;;33.42
37452;BMP280;23314;51.114;6.900;2023-06-10T11:58:22;101101.88;;;33.52
37452;BMP280;23314;51.114;6.900;2023-06-10T12:00:49;101100.66;;;33.46
37452;BMP280;23314;51.114;6.900;2023-06-10T12:03:15;101089.78;;;33.23
37452;BMP280;23314;51.114;6.900;2023-06-10T12:08:19;101107.09;;;32.73
37452;BMP280;23314;51.114;6.900;2023-06-10T12:10:45;101097.94;;;32.62
37452;BMP280;23314;51.114;6.900;2023-06-10T12:13:10;101099.88;;;32.44
37452;BMP280;23314;51.114;6.900;2023-06-10T12:15:36;101099.38;;;32.31
37452;BMP280;23314;51.114;6.900;2023-06-10T12:18:02;101099.22;;;32.29
37452;BMP280;23314;51.114;6.900;2023-06-10T12:20:30;101098.28;;;32.34
37452;BMP280;23314;51.114;6.900;2023-06-10T12:22:56;101093.28;;;32.40
37452;BMP280;23314;51.114;6.900;2023-06-10T12:25:29;101092.38;;;32.37
37452;BMP280;23314;51.114;6.900;2023-06-10T12:27:56;101097.91;;;32.30
37452;BMP280;23314;51.114;6.900;2023-06-10T12:30:24;101093.50;;;32.34
37452;BMP280;23314;51.114;6.900;2023-06-10T12:32:51;101099.53;;;32.48
37452;BMP280;23314;51.114;6.900;2023-06-10T12:35:22;101094.00;;;32.48
37452;BMP280;23314;51.114;6.900;2023-06-10T12:38:00;101096.75;;;32.48
37452;BMP280;23314;51.114;6.900;2023-06-10T12:40:31;101094.31;;;32.52
37452;BMP280;23314;51.114;6.900;2023-06-10T12:42:57;101097.88;;;32.45
37452;BMP280;23314;51.114;6.900;2023-06-10T12:45:31;101091.44;;;32.42
37452;BMP280;23314;51.114;6.900;2023-06-10T12:48:23;101091.97;;;32.41
37452;BMP280;23314;51.114;6.900;2023-06-10T12:50:57;101090.28;;;32.45
37452;BMP280;23314;51.114;6.900;2023-06-10T12:53:23;101090.06;;;32.51
37452;BMP280;23314;51.114;6.900;2023-06-10T12:55:49;101089.69;;;32.55
37452;BMP280;23314;51.114;6.900;2023-06-10T12:58:15;101095.97;;;32.55
37452;BMP280;23314;51.114;6.900;2023-06-10T13:00:40;101086.59;;;32.51
37452;BMP280;23314;51.114;6.900;2023-06-10T13:03:08;101088.19;;;32.61
37452;BMP280;23314;51.114;6.900;2023-06-10T13:05:35;101083.16;;;32.75
37452;BMP280;23314;51.114;6.900;2023-06-10T13:08:02;101083.47;;;32.79
37452;BMP280;23314;51.114;6.900;2023-06-10T13:10:27;101081.09;;;32.76
37452;BMP280;23314;51.114;6.900;2023-06-10T13:12:53;101068.72;;;32.85
37452;BMP280;23314;51.114;6.900;2023-06-10T13:15:19;101069.47;;;33.02
37452;BMP280;23314;51.114;6.900;2023-06-10T13:17:45;101064.09;;;33.30
37452;BMP280;23314;51.114;6.900;2023-06-10T13:20:15;101071.38;;;33.60
37452;BMP280;23314;51.114;6.900;2023-06-10T13:22:43;101058.06;;;33.93
37452;BMP280;23314;51.114;6.900;2023-06-10T13:25:09;101053.75;;;34.27
37452;BMP280;23314;51.114;6.900;2023-06-10T13:27:35;101056.66;;;34.57
37452;BMP280;23314;51.114;6.900;2023-06-10T13:30:03;101056.44;;;34.82
37452;BMP280;23314;51.114;6.900;2023-06-10T13:32:29;101052.53;;;34.94
37452;BMP280;23314;51.114;6.900;2023-06-10T13:34:54;101043.22;;;35.19
37452;BMP280;23314;51.114;6.900;2023-06-10T13:37:20;101044.38;;;35.16
37452;BMP280;23314;51.114;6.900;2023-06-10T13:39:45;101036.22;;;35.28
37452;BMP280;23314;51.114;6.900;2023-06-10T13:42:16;101033.34;;;35.36
37452;BMP280;23314;51.114;6.900;2023-06-10T13:44:42;101038.25;;;35.57
37452;BMP280;23314;51.114;6.900;2023-06-10T13:47:07;101040.31;;;35.66
37452;BMP280;23314;51.114;6.900;2023-06-10T13:49:33;101042.50;;;35.58
37452;BMP280;23314;51.114;6.900;2023-06-10T13:51:58;101041.19;;;35.20
37452;BMP280;23314;51.114;6.900;2023-06-10T13:54:23;101037.47;;;34.78
37452;BMP280;23314;51.114;6.900;2023-06-10T13:56:49;101040.56;;;34.45
37452;BMP280;23314;51.114;6.900;2023-06-10T13:59:14;101035.16;;;34.10
37452;BMP280;23314;51.114;6.900;2023-06-10T14:01:40;101038.31;;;33.79
37452;BMP280;23314;51.114;6.900;2023-06-10T14:04:06;101043.38;;;33.56
37452;BMP280;23314;51.114;6.900;2023-06-10T14:06:32;101041.50;;;33.41
37452;BMP280;23314;51.114;6.900;2023-06-10T14:09:01;101049.38;;;33.27
37452;BMP280;23314;51.114;6.900;2023-06-10T14:11:27;101051.25;;;33.25
37452;BMP280;23314;51.114;6.900;2023-06-10T14:13:52;101049.28;;;33.17
37452;BMP280;23314;51.114;6.900;2023-06-10T14:16:17;101049.97;;;33.00
37452;BMP280;23314;51.114;6.900;2023-06-10T14:18:43;101052.97;;;32.95
37452;BMP280;23314;51.114;6.900;2023-06-10T14:21:08;101050.03;;;32.93
37452;BMP280;23314;51.114;6.900;2023-06-10T14:23:34;101048.09;;;32.86
37452;BMP280;23314;51.114;6.900;2023-06-10T14:25:59;101044.63;;;32.77
37452;BMP280;23314;51.114;6.900;2023-06-10T14:28:26;101046.88;;;32.71
37452;BMP280;23314;51.114;6.900;2023-06-10T14:30:52;101037.78;;;32.78
37452;BMP280;23314;51.114;6.900;2023-06-10T14:33:18;101040.06;;;32.97
37452;BMP280;23314;51.114;6.900;2023-06-10T14:35:43;101038.38;;;33.02
37452;BMP280;23314;51.114;6.900;2023-06-10T14:38:09;101043.09;;;33.09
37452;BMP280;23314;51.114;6.900;2023-06-10T14:40:37;101037.47;;;32.99
37452;BMP280;23314;51.114;6.900;2023-06-10T14:43:11;101034.28;;;33.03
37452;BMP280;23314;51.114;6.900;2023-06-10T14:45:38;101028.53;;;33.09
37452;BMP280;23314;51.114;6.900;2023-06-10T14:48:05;101035.38;;;33.08
37452;BMP280;23314;51.114;6.900;2023-06-10T14:50:30;101028.00;;;33.02
37452;BMP280;23314;51.114;6.900;2023-06-10T14:52:56;101025.25;;;33.02
37452;BMP280;23314;51.114;6.900;2023-06-10T14:55:21;101025.09;;;33.00
37452;BMP280;23314;51.114;6.900;2023-06-10T14:57:48;101022.75;;;32.97
37452;BMP280;23314;51.114;6.900;2023-06-10T15:00:13;101020.16;;;32.99
37452;BMP280;23314;51.114;6.900;2023-06-10T15:02:40;101020.53;;;32.95
37452;BMP280;23314;51.114;6.900;2023-06-10T15:05:06;101015.38;;;32.92
37452;BMP280;23314;51.114;6.900;2023-06-10T15:07:31;101018.22;;;32.84
37452;BMP280;23314;51.114;6.900;2023-06-10T15:09:57;101013.44;;;32.85
37452;BMP280;23314;51.114;6.900;2023-06-10T15:12:22;101012.75;;;32.76
37452;BMP280;23314;51.114;6.900;2023-06-10T15:14:48;101011.56;;;32.70
37452;BMP280;23314;51.114;6.900;2023-06-10T15:17:13;101004.03;;;32.62
37452;BMP280;23314;51.114;6.900;2023-06-10T15:19:38;101010.13;;;32.61
37452;BMP280;23314;51.114;6.900;2023-06-10T15:22:04;101007.88;;;32.67
37452;BMP280;23314;51.114;6.900;2023-06-10T15:24:29;101004.84;;;32.80
37452;BMP280;23314;51.114;6.900;2023-06-10T15:26:55;100995.88;;;32.90
37452;BMP280;23314;51.114;6.900;2023-06-10T15:29:20;100992.28;;;33.05
37452;BMP280;23314;51.114;6.900;2023-06-10T15:31:45;100992.94;;;33.30
37452;BMP280;23314;51.114;6.900;2023-06-10T15:34:11;100987.50;;;33.57
37452;BMP280;23314;51.114;6.900;2023-06-10T15:36:36;100990.59;;;33.89
37452;BMP280;23314;51.114;6.900;2023-06-10T15:39:03;100986.91;;;34.04
37452;BMP280;23314;51.114;6.900;2023-06-10T15:41:31;100990.44;;;34.14
37452;BMP280;23314;51.114;6.900;2023-06-10T15:43:56;100991.94;;;34.25
37452;BMP280;23314;51.114;6.900;2023-06-10T15:46:24;100989.88;;;34.15
37452;BMP280;23314;51.114;6.900;2023-06-10T15:48:50;100989.34;;;34.00
37452;BMP280;23314;51.114;6.900;2023-06-10T15:51:16;100981.16;;;33.92
37452;BMP280;23314;51.114;6.900;2023-06-10T15:53:41;100978.31;;;33.82
37452;BMP280;23314;51.114;6.900;2023-06-10T15:56:06;100983.34;;;33.66
37452;BMP280;23314;51.114;6.900;2023-06-10T15:58:31;100982.59;;;33.48
37452;BMP280;23314;51.114;6.900;2023-06-10T16:00:57;100980.09;;;33.25
37452;BMP280;23314;51.114;6.900;2023-06-10T16:03:22;100978.94;;;33.11
37452;BMP280;23314;51.114;6.900;2023-06-10T16:05:47;100984.06;;;32.97
37452;BMP280;23314;51.114;6.900;2023-06-10T16:08:13;100987.13;;;32.84
37452;BMP280;23314;51.114;6.900;2023-06-10T16:10:38;100977.09;;;32.71
37452;BMP280;23314;51.114;6.900;2023-06-10T16:13:04;100967.94;;;32.60
37452;BMP280;23314;51.114;6.900;2023-06-10T16:15:29;100976.06;;;32.58
37452;BMP280;23314;51.114;6.900;2023-06-10T16:17:54;100976.53;;;32.72
37452;BMP280;23314;51.114;6.900;2023-06-10T16:20:20;100973.06;;;32.89
37452;BMP280;23314;51.114;6.900;2023-06-10T16:22:46;100975.69;;;33.05
37452;BMP280;23314;51.114;6.900;2023-06-10T16:25:11;100966.41;;;33.27
37452;BMP280;23314;51.114;6.900;2023-06-10T16:27:36;100972.69;;;33.45
37452;BMP280;23314;51.114;6.900;2023-06-10T16:30:02;100973.16;;;33.69
37452;BMP280;23314;51.114;6.900;2023-06-10T16:32:28;100970.53;;;33.98
37452;BMP280;23314;51.114;6.900;2023-06-10T16:34:53;100974.72;;;34.16
37452;BMP280;23314;51.114;6.900;2023-06-10T16:37:18;100970.16;;;34.48
37452;BMP280;23314;51.114;6.900;2023-06-10T16:39:44;100974.78;;;35.02
37452;BMP280;23314;51.114;6.900;2023-06-10T16:42:09;100965.22;;;35.64
37452;BMP280;23314;51.114;6.900;2023-06-10T16:44:34;100972.69;;;36.34
37452;BMP280;23314;51.114;6.900;2023-06-10T16:47:00;100967.72;;;36.97
37452;BMP280;23314;51.114;6.900;2023-06-10T16:49:25;100976.69;;;37.52
37452;BMP280;23314;51.114;6.900;2023-06-10T16:51:50;100973.69;;;37.95
37452;BMP280;23314;51.114;6.900;2023-06-10T16:54:16;100968.38;;;38.37
37452;BMP280;23314;51.114;6.900;2023-06-10T16:56:41;100965.69;;;38.50
37452;BMP280;23314;51.114;6.900;2023-06-10T16:59:06;100968.66;;;38.29
37452;BMP280;23314;51.114;6.900;2023-06-10T17:01:31;100963.31;;;38.45
37452;BMP280;23314;51.114;6.900;2023-06-10T17:03:57;100960.03;;;38.74
37452;BMP280;23314;51.114;6.900;2023-06-10T17:06:22;100962.53;;;39.07
37452;BMP280;23314;51.114;6.900;2023-06-10T17:08:47;100969.00;;;39.24
37452;BMP280;23314;51.114;6.900;2023-06-10T17:11:13;100966.66;;;39.60
37452;BMP280;23314;51.114;6.900;2023-06-10T17:13:38;100972.03;;;39.69
37452;BMP280;23314;51.114;6.900;2023-06-10T17:16:04;100968.63;;;39.99
37452;BMP280;23314;51.114;6.900;2023-06-10T17:18:29;100969.34;;;39.99
37452;BMP280;23314;51.114;6.900;2023-06-10T17:20:54;100967.78;;;39.96
37452;BMP280;23314;51.114;6.900;2023-06-10T17:23:20;100968.63;;;39.99
37452;BMP280;23314;51.114;6.900;2023-06-10T17:25:45;100973.97;;;40.08
37452;BMP280;23314;51.114;6.900;2023-06-10T17:28:10;100973.47;;;39.98
37452;BMP280;23314;51.114;6.900;2023-06-10T17:30:36;100981.75;;;39.96
37452;BMP280;23314;51.114;6.900;2023-06-10T17:33:01;100980.50;;;39.72
37452;BMP280;23314;51.114;6.900;2023-06-10T17:35:26;100981.13;;;39.42
37452;BMP280;23314;51.114;6.900;2023-06-10T17:37:52;100981.13;;;39.42
37452;BMP280;23314;51.114;6.900;2023-06-10T17:40:17;100979.03;;;39.43
37452;BMP280;23314;51.114;6.900;2023-06-10T17:42:42;100975.59;;;39.17
37452;BMP280;23314;51.114;6.900;2023-06-10T17:45:08;100983.91;;;38.77
37452;BMP280;23314;51.114;6.900;2023-06-10T17:47:34;100985.97;;;38.39
37452;BMP280;23314;51.114;6.900;2023-06-10T17:49:59;100990.41;;;37.95
37452;BMP280;23314;51.114;6.900;2023-06-10T17:52:24;100992.31;;;37.12
37452;BMP280;23314;51.114;6.900;2023-06-10T17:54:50;100992.09;;;36.43
37452;BMP280;23314;51.114;6.900;2023-06-10T17:57:15;100998.06;;;36.18
37452;BMP280;23314;51.114;6.900;2023-06-10T17:59:41;100995.16;;;36.16
37452;BMP280;23314;51.114;6.900;2023-06-10T18:02:08;100998.47;;;36.24
37452;BMP280;23314;51.114;6.900;2023-06-10T18:04:33;101010.13;;;36.33
37452;BMP280;23314;51.114;6.900;2023-06-10T18:06:58;100997.31;;;36.49
37452;BMP280;23314;51.114;6.900;2023-06-10T18:09:25;101005.78;;;36.73
37452;BMP280;23314;51.114;6.900;2023-06-10T18:11:52;101007.25;;;36.95
37452;BMP280;23314;51.114;6.900;2023-06-10T18:14:17;101008.16;;;37.09
37452;BMP280;23314;51.114;6.900;2023-06-10T18:16:42;101006.53;;;36.95
37452;BMP280;23314;51.114;6.900;2023-06-10T18:19:08;101016.38;;;36.86
37452;BMP280;23314;51.114;6.900;2023-06-10T18:21:33;101013.41;;;36.94
37452;BMP280;23314;51.114;6.900;2023-06-10T18:23:58;101012.41;;;36.89
37452;BMP280;23314;51.114;6.900;2023-06-10T18:26:24;101016.72;;;36.80
37452;BMP280;23314;51.114;6.900;2023-06-10T18:28:49;101013.09;;;36.78
37452;BMP280;23314;51.114;6.900;2023-06-10T18:31:15;101013.13;;;36.46
37452;BMP280;23314;51.114;6.900;2023-06-10T18:33:40;101016.28;;;36.31
37452;BMP280;23314;51.114;6.900;2023-06-10T18:36:06;101020.78;;;36.05
37452;BMP280;23314;51.114;6.900;2023-06-10T18:38:31;101020.69;;;35.83
37452;BMP280;23314;51.114;6.900;2023-06-10T18:40:57;101016.03;;;35.66
37452;BMP280;23314;51.114;6.900;2023-06-10T18:43:22;101013.59;;;35.51
37452;BMP280;23314;51.114;6.900;2023-06-10T18:45:47;101019.88;;;35.32
37452;BMP280;23314;51.114;6.900;2023-06-10T18:48:13;101033.59;;;35.10
37452;BMP280;23314;51.114;6.900;2023-06-10T18:50:38;101039.97;;;34.93
37452;BMP280;23314;51.114;6.900;2023-06-10T18:53:03;101029.28;;;34.70
37452;BMP280;23314;51.114;6.900;2023-06-10T18:55:29;101038.25;;;34.42
37452;BMP280;23314;51.114;6.900;2023-06-10T18:57:56;101034.47;;;34.20
37452;BMP280;23314;51.114;6.900;2023-06-10T19:00:21;101040.47;;;33.98
37452;BMP280;23314;51.114;6.900;2023-06-10T19:02:46;101046.53;;;33.70
37452;BMP280;23314;51.114;6.900;2023-06-10T19:05:11;101050.59;;;33.34
37452;BMP280;23314;51.114;6.900;2023-06-10T19:07:38;101058.00;;;32.89
37452;BMP280;23314;51.114;6.900;2023-06-10T19:10:04;101049.81;;;32.40
37452;BMP280;23314;51.114;6.900;2023-06-10T19:12:30;101062.69;;;31.97
37452;BMP280;23314;51.114;6.900;2023-06-10T19:14:55;101058.72;;;31.60
37452;BMP280;23314;51.114;6.900;2023-06-10T19:17:21;101064.44;;;31.23
37452;BMP280;23314;51.114;6.900;2023-06-10T19:19:46;101069.97;;;30.92
37452;BMP280;23314;51.114;6.900;2023-06-10T19:22:11;101067.66;;;30.60
37452;BMP280;23314;51.114;6.900;2023-06-10T19:24:37;101074.31;;;30.28
37452;BMP280;23314;51.114;6.900;2023-06-10T19:27:06;101080.59;;;30.00
37452;BMP280;23314;51.114;6.900;2023-06-10T19:29:35;101077.84;;;29.71
37452;BMP280;23314;51.114;6.900;2023-06-10T19:32:01;101081.47;;;29.45
37452;BMP280;23314;51.114;6.900;2023-06-10T19:34:26;101082.00;;;29.22
37452;BMP280;23314;51.114;6.900;2023-06-10T19:36:52;101082.69;;;29.02
37452;BMP280;23314;51.114;6.900;2023-06-10T19:39:18;101085.63;;;28.83
37452;BMP280;23314;51.114;6.900;2023-06-10T19:41:43;101091.25;;;28.64
37452;BMP280;23314;51.114;6.900;2023-06-10T19:44:09;101089.16;;;28.43
37452;BMP280;23314;51.114;6.900;2023-06-10T19:46:35;101093.16;;;28.29
37452;BMP280;23314;51.114;6.900;2023-06-10T19:49:00;101092.94;;;28.13
37452;BMP280;23314;51.114;6.900;2023-06-10T19:51:26;101103.66;;;27.98
37452;BMP280;23314;51.114;6.900;2023-06-10T19:53:51;101105.63;;;27.84
37452;BMP280;23314;51.114;6.900;2023-06-10T19:56:17;101113.31;;;27.72
37452;BMP280;23314;51.114;6.900;2023-06-10T19:58:50;101114.22;;;27.62
